createdAt,value
2023-02-02T00:03:21.638Z,5.50
2023-02-02T00:08:26.209Z,6.80
2023-02-02T00:13:29.904Z,5.70
2023-02-02T00:18:33.312Z,5.10
2023-02-02T00:23:36.829Z,4.90
2023-02-02T00:28:40.452Z,4.10
2023-02-02T00:33:48.706Z,4.60
2023-02-02T00:38:53.147Z,4.70
2023-02-02T00:44:15.366Z,5.30
2023-02-02T00:49:18.983Z,4.90
2023-02-02T00:54:22.397Z,3.40
2023-02-02T00:59:25.911Z,3.00
2023-02-02T01:04:29.426Z,2.10
2023-02-02T01:09:33.046Z,2.40
2023-02-02T01:14:36.560Z,1.70
2023-02-02T01:19:41.202Z,2.00
2023-02-02T01:29:48.131Z,2.00
2023-02-02T01:34:51.641Z,2.00
2023-02-02T01:39:55.063Z,3.10
2023-02-02T01:45:01.751Z,3.00
2023-02-02T01:50:06.495Z,3.90
2023-02-02T01:55:13.601Z,4.10
2023-02-02T02:00:24.793Z,5.50
2023-02-02T02:05:32.915Z,4.90
2023-02-02T02:10:36.432Z,5.60
2023-02-02T02:16:19.747Z,6.50
2023-02-02T02:22:07.121Z,9.60
2023-02-02T02:27:35.110Z,16.80
2023-02-02T02:32:53.271Z,23.90
2023-02-02T02:38:09.995Z,18.90
2023-02-02T02:43:25.488Z,10.50
2023-02-02T02:48:29.921Z,11.60
2023-02-02T02:58:49.531Z,14.90
2023-02-02T03:04:08.232Z,14.60
2023-02-02T03:09:19.110Z,12.60
2023-02-02T03:14:22.526Z,8.50
2023-02-02T03:19:26.243Z,7.30
2023-02-02T03:24:29.772Z,7.20
2023-02-02T03:29:33.685Z,7.80
2023-02-02T03:34:37.209Z,4.50
2023-02-02T03:39:40.820Z,7.60
2023-02-02T03:44:44.335Z,14.40
2023-02-02T03:49:47.746Z,19.10
2023-02-02T03:54:52.083Z,11.40
2023-02-02T03:59:55.497Z,12.10
2023-02-02T04:04:59.014Z,7.10
2023-02-02T04:10:03.147Z,5.60
2023-02-02T04:15:07.790Z,6.90
2023-02-02T04:20:12.831Z,7.90
2023-02-02T04:25:16.451Z,9.80
2023-02-02T04:30:20.581Z,10.20
2023-02-02T04:35:24.347Z,8.10
2023-02-02T04:40:28.435Z,8.10
2023-02-02T04:45:31.892Z,7.50
2023-02-02T04:50:36.082Z,6.90
2023-02-02T04:55:39.601Z,5.60
2023-02-02T05:00:43.262Z,5.00
2023-02-02T05:05:47.859Z,4.00
2023-02-02T05:10:51.270Z,6.50
2023-02-02T05:15:55.544Z,7.70
2023-02-02T05:21:03.224Z,5.90
2023-02-02T05:26:06.729Z,6.60
2023-02-02T05:31:10.496Z,6.00
2023-02-02T05:36:14.172Z,6.40
2023-02-02T05:41:17.686Z,9.50
2023-02-02T05:46:21.203Z,14.20
2023-02-02T05:51:30.383Z,8.50
2023-02-02T05:56:33.762Z,5.50
2023-02-02T06:01:37.382Z,4.80
2023-02-02T06:06:41.826Z,7.30
2023-02-02T06:16:49.164Z,6.70
2023-02-02T06:21:52.771Z,4.50
2023-02-02T06:26:56.381Z,6.20
2023-02-02T06:32:00.042Z,5.00
2023-02-02T06:37:03.935Z,5.50
2023-02-02T06:42:20.373Z,5.10
2023-02-02T06:47:26.830Z,5.20
2023-02-02T06:52:30.779Z,5.40
2023-02-02T06:57:34.483Z,5.40
2023-02-02T07:02:37.922Z,6.30
2023-02-02T07:07:41.513Z,10.30
2023-02-02T07:12:45.751Z,14.90
2023-02-02T07:17:49.271Z,10.60
2023-02-02T07:22:52.879Z,7.30
2023-02-02T07:27:56.816Z,5.90
2023-02-02T07:33:00.937Z,8.90
2023-02-02T07:38:04.564Z,10.80
2023-02-02T07:43:08.069Z,9.70
2023-02-02T07:48:11.992Z,15.30
2023-02-02T07:53:15.617Z,9.90
2023-02-02T07:58:19.330Z,10.80
2023-02-02T08:03:22.949Z,17.40
2023-02-02T08:08:27.001Z,12.10
2023-02-02T08:18:35.508Z,4.40
2023-02-02T08:23:41.438Z,4.10
2023-02-02T08:28:47.755Z,3.40
2023-02-02T08:33:54.283Z,3.10
2023-02-02T08:39:03.302Z,3.40
2023-02-02T08:44:11.321Z,2.90
2023-02-02T08:49:15.695Z,2.10
2023-02-02T08:54:19.619Z,2.60
2023-02-02T08:59:23.231Z,1.90
2023-02-02T09:04:26.757Z,1.50
2023-02-02T09:09:30.366Z,2.00
2023-02-02T09:14:33.876Z,1.40
2023-02-02T09:19:37.496Z,1.20
2023-02-02T09:24:41.111Z,1.30
2023-02-02T09:29:44.627Z,3.70
2023-02-02T09:34:48.349Z,1.80
2023-02-02T09:39:51.761Z,2.10
2023-02-02T09:45:01.535Z,1.50
2023-02-02T09:50:33.612Z,0.80
2023-02-02T09:55:40.571Z,1.10
2023-02-02T10:01:07.718Z,0.90
2023-02-02T10:06:38.242Z,0.90
2023-02-02T10:11:51.160Z,1.80
2023-02-02T10:16:57.645Z,2.00
2023-02-02T10:22:21.636Z,1.50
2023-02-02T10:27:41.137Z,2.40
2023-02-02T10:32:56.934Z,1.80
2023-02-02T10:38:11.201Z,1.30
2023-02-02T10:43:48.029Z,1.20
2023-02-02T10:49:16.495Z,1.10
2023-02-02T10:54:55.039Z,1.60
2023-02-02T11:00:02.851Z,0.80
2023-02-02T11:05:25.818Z,1.10
2023-02-02T11:10:29.542Z,1.20
2023-02-02T11:15:33.081Z,0.90
2023-02-02T11:20:39.234Z,1.60
2023-02-02T11:25:43.361Z,1.20
2023-02-02T11:30:52.474Z,0.90
2023-02-02T11:36:02.084Z,1.10
2023-02-02T11:41:13.293Z,0.70
2023-02-02T11:46:29.654Z,1.00
2023-02-02T11:51:33.405Z,0.60
2023-02-02T11:56:38.972Z,0.30
2023-02-02T12:01:44.273Z,0.50
2023-02-02T12:06:47.737Z,0.30
2023-02-02T12:12:03.338Z,0.20
2023-02-02T12:17:25.085Z,0.50
2023-02-02T12:22:46.723Z,0.80
2023-02-02T12:28:15.739Z,0.50
2023-02-02T12:33:46.589Z,0.90
2023-02-02T12:39:21.948Z,0.30
2023-02-02T12:44:41.038Z,0.40
2023-02-02T12:50:09.494Z,0.20
2023-02-02T12:55:35.067Z,0.50
2023-02-02T13:01:15.360Z,0.50
2023-02-02T13:06:48.755Z,0.80
2023-02-02T13:12:03.949Z,1.50
2023-02-02T13:17:19.956Z,0.80
2023-02-02T13:22:34.940Z,0.30
2023-02-02T13:27:40.604Z,0.30
2023-02-02T13:32:47.196Z,0.50
2023-02-02T13:38:04.434Z,1.80
2023-02-02T13:43:45.631Z,0.50
2023-02-02T13:48:59.076Z,0.70
2023-02-02T13:54:31.600Z,0.80
2023-02-02T13:59:57.416Z,1.20
2023-02-02T14:05:04.413Z,0.70
2023-02-02T14:10:31.779Z,5.80
2023-02-02T14:15:41.218Z,1.70
2023-02-02T14:20:47.972Z,5.50
2023-02-02T14:26:05.576Z,2.40
2023-02-02T14:31:38.135Z,1.80
2023-02-02T14:36:56.947Z,1.20
2023-02-02T14:42:52.683Z,1.80
2023-02-02T14:48:01.563Z,2.00
2023-02-02T14:53:19.587Z,1.20
2023-02-02T14:58:27.986Z,1.60
2023-02-02T15:03:37.265Z,4.00
2023-02-02T15:08:40.879Z,6.60
2023-02-02T15:13:49.887Z,1.60
2023-02-02T15:19:04.813Z,3.00
2023-02-02T15:24:22.898Z,1.60
2023-02-02T15:29:41.872Z,0.80
2023-02-02T15:34:55.375Z,1.10
2023-02-02T15:40:02.387Z,1.90
2023-02-02T15:45:06.518Z,2.50
2023-02-02T15:50:20.594Z,1.50
2023-02-02T15:55:32.192Z,0.90
2023-02-02T16:00:38.354Z,2.10
2023-02-02T16:05:51.503Z,6.70
2023-02-02T16:11:27.485Z,5.60
2023-02-02T16:16:40.011Z,6.80
2023-02-02T16:21:54.597Z,2.20
2023-02-02T16:27:01.538Z,1.40
2023-02-02T16:32:05.586Z,4.80
2023-02-02T16:37:36.594Z,3.20
2023-02-02T16:42:40.492Z,1.50
2023-02-02T16:47:44.418Z,2.50
2023-02-02T16:52:54.197Z,2.50
2023-02-02T16:57:58.943Z,1.90
2023-02-02T17:03:09.446Z,4.30
2023-02-02T17:08:13.122Z,1.70
2023-02-02T17:13:32.721Z,1.80
2023-02-02T17:18:36.242Z,1.30
2023-02-02T17:23:40.925Z,1.00
2023-02-02T17:28:44.795Z,1.30
2023-02-02T17:33:48.313Z,0.80
2023-02-02T17:38:51.724Z,0.90
2023-02-02T17:43:55.196Z,0.90
2023-02-02T17:48:59.170Z,2.00
2023-02-02T17:54:02.680Z,1.50
2023-02-02T17:59:06.918Z,1.40
2023-02-02T18:04:13.774Z,2.50
2023-02-02T18:09:17.324Z,2.10
2023-02-02T18:14:20.946Z,1.90
2023-02-02T18:19:24.560Z,2.10
2023-02-02T18:24:28.487Z,1.70
2023-02-02T18:29:32.306Z,2.60
2023-02-02T18:34:36.660Z,3.40
2023-02-02T18:44:43.780Z,2.80
2023-02-02T18:49:47.394Z,3.20
2023-02-02T18:54:51.039Z,1.30
2023-02-02T18:59:54.529Z,3.80
2023-02-02T19:05:16.789Z,2.20
2023-02-02T19:10:20.912Z,0.50
2023-02-02T19:15:27.035Z,0.50
2023-02-02T19:20:31.221Z,1.20
2023-02-02T19:25:34.589Z,1.60
2023-02-02T19:30:38.292Z,1.20
2023-02-02T19:35:46.719Z,1.50
2023-02-02T19:40:50.102Z,1.60
2023-02-02T19:45:55.319Z,1.50
2023-02-02T19:51:00.652Z,1.50
2023-02-02T19:56:24.910Z,0.80
2023-02-02T20:01:34.586Z,1.20
2023-02-02T20:06:52.599Z,1.80
2023-02-02T20:12:01.574Z,5.30
2023-02-02T20:17:14.367Z,2.20
2023-02-02T20:22:29.357Z,1.40
2023-02-02T20:27:34.654Z,1.10
2023-02-02T20:32:41.398Z,2.40
2023-02-02T20:37:45.568Z,1.60
2023-02-02T20:42:49.702Z,1.80
2023-02-02T20:47:53.347Z,2.20
2023-02-02T20:53:00.017Z,2.30
2023-02-02T20:58:04.708Z,3.70
2023-02-02T21:03:08.162Z,2.40
2023-02-02T21:08:11.996Z,1.90
2023-02-02T21:13:15.962Z,1.90
2023-02-02T21:18:19.970Z,1.80
2023-02-02T21:23:23.348Z,1.90
2023-02-02T21:28:26.870Z,1.90
2023-02-02T21:33:30.332Z,1.60
2023-02-02T21:38:33.724Z,1.90
2023-02-02T21:43:37.597Z,2.50
2023-02-02T21:48:42.265Z,2.20
2023-02-02T21:53:45.877Z,2.20
2023-02-02T21:58:49.904Z,5.30
2023-02-02T22:03:53.930Z,6.10
2023-02-02T22:09:14.151Z,5.70
2023-02-02T22:14:23.904Z,4.90
2023-02-02T22:19:34.845Z,2.30
2023-02-02T22:24:38.516Z,1.80
2023-02-02T22:29:42.025Z,2.20
2023-02-02T22:34:45.642Z,2.10
2023-02-02T22:39:49.156Z,1.80
2023-02-02T22:44:52.674Z,1.80
2023-02-02T22:49:56.191Z,1.30
2023-02-02T22:54:59.725Z,1.00
2023-02-02T23:00:12.232Z,1.20
2023-02-02T23:05:17.487Z,1.70
2023-02-02T23:10:24.535Z,1.20
2023-02-02T23:15:30.647Z,2.00
2023-02-02T23:20:34.184Z,1.80
2023-02-02T23:25:37.802Z,1.40
2023-02-02T23:30:41.346Z,2.00
2023-02-02T23:35:44.927Z,1.70
2023-02-02T23:40:48.546Z,2.40
2023-02-02T23:45:52.166Z,2.10
2023-02-02T23:50:56.194Z,3.50
2023-02-02T23:55:59.708Z,2.60
